sensor_id;sensor_type;location;lat;lon;timestamp;temperature;humidity
30290;DHT22;17105;55.652;37.710;2022-09-03T06:25:24;16.60;57.40
30290;DHT22;17105;55.652;37.710;2022-09-03T06:26:01;16.70;57.70
30290;DHT22;17105;55.652;37.710;2022-09-03T06:26:38;16.70;57.60
30290;DHT22;17105;55.652;37.710;2022-09-03T06:27:15;16.70;57.50
30290;DHT22;17105;55.652;37.710;2022-09-03T06:27:49;16.70;57.30
30290;DHT22;17105;55.652;37.710;2022-09-03T06:28:25;16.70;57.20
30290;DHT22;17105;55.652;37.710;2022-09-03T06:29:01;16.70;57.30
30290;DHT22;17105;55.652;37.710;2022-09-03T06:29:35;16.80;57.30
30290;DHT22;17105;55.652;37.710;2022-09-03T06:30:11;16.80;57.20
30290;DHT22;17105;55.652;37.710;2022-09-03T06:30:47;16.80;57.00
30290;DHT22;17105;55.652;37.710;2022-09-03T06:31:22;16.80;56.80
30290;DHT22;17105;55.652;37.710;2022-09-03T06:31:57;16.80;56.60
30290;DHT22;17105;55.652;37.710;2022-09-03T06:32:42;16.80;56.50
30290;DHT22;17105;55.652;37.710;2022-09-03T06:33:16;16.80;56.40
30290;DHT22;17105;55.652;37.710;2022-09-03T06:33:51;16.80;56.20
30290;DHT22;17105;55.652;37.710;2022-09-03T06:34:29;16.70;56.20
30290;DHT22;17105;55.652;37.710;2022-09-03T06:35:06;16.70;56.30
30290;DHT22;17105;55.652;37.710;2022-09-03T06:35:43;16.70;56.50
30290;DHT22;17105;55.652;37.710;2022-09-03T06:36:18;16.70;56.60
30290;DHT22;17105;55.652;37.710;2022-09-03T06:36:54;16.80;56.70
30290;DHT22;17105;55.652;37.710;2022-09-03T06:37:28;16.80;56.80
30290;DHT22;17105;55.652;37.710;2022-09-03T06:38:03;16.90;56.60
30290;DHT22;17105;55.652;37.710;2022-09-03T06:38:39;16.80;56.30
30290;DHT22;17105;55.652;37.710;2022-09-03T06:39:14;16.90;56.10
30290;DHT22;17105;55.652;37.710;2022-09-03T06:39:49;16.90;56.00
30290;DHT22;17105;55.652;37.710;2022-09-03T06:40:23;16.90;56.10
30290;DHT22;17105;55.652;37.710;2022-09-03T06:40:59;17.00;56.30
30290;DHT22;17105;55.652;37.710;2022-09-03T06:41:36;17.20;56.40
30290;DHT22;17105;55.652;37.710;2022-09-03T06:42:12;17.40;56.10
30290;DHT22;17105;55.652;37.710;2022-09-03T06:42:55;17.60;55.60
30290;DHT22;17105;55.652;37.710;2022-09-03T06:43:32;17.70;54.90
30290;DHT22;17105;55.652;37.710;2022-09-03T17:36:57;16.00;57.20
30290;DHT22;17105;55.652;37.710;2022-09-03T17:37:43;16.10;57.70
30290;DHT22;17105;55.652;37.710;2022-09-03T17:38:29;16.10;57.80
30290;DHT22;17105;55.652;37.710;2022-09-03T17:39:43;16.10;57.80
30290;DHT22;17105;55.652;37.710;2022-09-03T17:40:27;16.10;58.00
30290;DHT22;17105;55.652;37.710;2022-09-03T17:41:14;16.10;57.90
30290;DHT22;17105;55.652;37.710;2022-09-03T17:41:53;16.10;58.00
30290;DHT22;17105;55.652;37.710;2022-09-03T17:42:34;16.10;58.00
30290;DHT22;17105;55.652;37.710;2022-09-03T17:43:19;16.10;58.10
30290;DHT22;17105;55.652;37.710;2022-09-03T17:44:03;16.10;58.30
30290;DHT22;17105;55.652;37.710;2022-09-03T17:44:49;16.10;58.30
30290;DHT22;17105;55.652;37.710;2022-09-03T17:45:40;16.10;58.40
30290;DHT22;17105;55.652;37.710;2022-09-03T17:46:27;16.10;58.50
30290;DHT22;17105;55.652;37.710;2022-09-03T17:47:24;16.00;58.50
30290;DHT22;17105;55.652;37.710;2022-09-03T17:49:15;16.10;58.70
30290;DHT22;17105;55.652;37.710;2022-09-03T17:49:56;16.00;58.60
30290;DHT22;17105;55.652;37.710;2022-09-03T17:50:41;16.00;58.60
30290;DHT22;17105;55.652;37.710;2022-09-03T17:51:29;16.10;58.70
30290;DHT22;17105;55.652;37.710;2022-09-03T17:52:07;16.00;58.70
30290;DHT22;17105;55.652;37.710;2022-09-03T17:52:48;16.00;58.70
30290;DHT22;17105;55.652;37.710;2022-09-03T17:53:33;16.00;58.80
30290;DHT22;17105;55.652;37.710;2022-09-03T17:54:16;16.00;58.80
30290;DHT22;17105;55.652;37.710;2022-09-03T17:54:52;16.00;58.80
30290;DHT22;17105;55.652;37.710;2022-09-03T17:55:32;16.00;58.80
30290;DHT22;17105;55.652;37.710;2022-09-03T17:56:10;16.00;58.80
30290;DHT22;17105;55.652;37.710;2022-09-03T17:56:55;16.00;58.80
30290;DHT22;17105;55.652;37.710;2022-09-03T17:57:36;16.00;58.90
30290;DHT22;17105;55.652;37.710;2022-09-03T17:58:18;16.00;59.00
30290;DHT22;17105;55.652;37.710;2022-09-03T17:59:04;16.00;59.50
30290;DHT22;17105;55.652;37.710;2022-09-03T17:59:45;16.00;59.10
30290;DHT22;17105;55.652;37.710;2022-09-03T18:00:23;16.00;59.10
30290;DHT22;17105;55.652;37.710;2022-09-03T18:01:12;16.00;59.20
30290;DHT22;17105;55.652;37.710;2022-09-03T18:01:53;16.00;59.20
30290;DHT22;17105;55.652;37.710;2022-09-03T18:02:38;16.00;59.20
30290;DHT22;17105;55.652;37.710;2022-09-03T18:03:20;16.10;59.20
30290;DHT22;17105;55.652;37.710;2022-09-03T18:04:00;16.00;59.20
30290;DHT22;17105;55.652;37.710;2022-09-03T18:04:49;16.00;59.20
30290;DHT22;17105;55.652;37.710;2022-09-03T18:05:31;16.00;59.10
30290;DHT22;17105;55.652;37.710;2022-09-03T18:06:09;16.10;59.20
30290;DHT22;17105;55.652;37.710;2022-09-03T18:06:51;16.10;59.20
30290;DHT22;17105;55.652;37.710;2022-09-03T18:07:31;16.10;59.20
30290;DHT22;17105;55.652;37.710;2022-09-03T18:08:14;16.10;59.20
30290;DHT22;17105;55.652;37.710;2022-09-03T18:08:57;16.10;59.30
30290;DHT22;17105;55.652;37.710;2022-09-03T18:09:36;16.10;59.30
30290;DHT22;17105;55.652;37.710;2022-09-03T18:10:24;16.10;59.30
30290;DHT22;17105;55.652;37.710;2022-09-03T18:11:09;16.10;59.40
30290;DHT22;17105;55.652;37.710;2022-09-03T18:11:48;16.10;59.40
30290;DHT22;17105;55.652;37.710;2022-09-03T18:12:31;16.10;59.40
30290;DHT22;17105;55.652;37.710;2022-09-03T18:13:13;16.10;59.40
30290;DHT22;17105;55.652;37.710;2022-09-03T18:14:06;16.10;59.40
30290;DHT22;17105;55.652;37.710;2022-09-03T18:14:47;16.20;59.50
30290;DHT22;17105;55.652;37.710;2022-09-03T18:15:26;16.20;59.60
30290;DHT22;17105;55.652;37.710;2022-09-03T18:16:04;16.20;59.60
30290;DHT22;17105;55.652;37.710;2022-09-03T18:16:44;16.10;59.60
30290;DHT22;17105;55.652;37.710;2022-09-03T18:17:36;16.20;59.70
30290;DHT22;17105;55.652;37.710;2022-09-03T18:18:19;16.20;59.80
30290;DHT22;17105;55.652;37.710;2022-09-03T18:18:59;16.20;59.80
30290;DHT22;17105;55.652;37.710;2022-09-03T18:19:38;16.20;59.80
30290;DHT22;17105;55.652;37.710;2022-09-03T18:20:41;16.10;59.80
30290;DHT22;17105;55.652;37.710;2022-09-03T18:21:57;16.20;59.90
30290;DHT22;17105;55.652;37.710;2022-09-03T18:22:54;16.20;59.80
30290;DHT22;17105;55.652;37.710;2022-09-03T18:23:53;16.20;59.80
30290;DHT22;17105;55.652;37.710;2022-09-03T18:24:52;16.20;59.80
30290;DHT22;17105;55.652;37.710;2022-09-03T18:25:48;16.20;59.80
30290;DHT22;17105;55.652;37.710;2022-09-03T18:26:46;16.20;59.90
30290;DHT22;17105;55.652;37.710;2022-09-03T18:27:46;16.20;59.80
30290;DHT22;17105;55.652;37.710;2022-09-03T18:28:43;16.20;59.80
30290;DHT22;17105;55.652;37.710;2022-09-03T18:29:42;16.20;59.90
30290;DHT22;17105;55.652;37.710;2022-09-03T18:30:35;16.20;59.90
30290;DHT22;17105;55.652;37.710;2022-09-03T18:31:28;16.20;59.90
30290;DHT22;17105;55.652;37.710;2022-09-03T18:32:21;16.20;60.00
30290;DHT22;17105;55.652;37.710;2022-09-03T18:33:13;16.20;60.00
30290;DHT22;17105;55.652;37.710;2022-09-03T18:34:09;16.20;60.00
30290;DHT22;17105;55.652;37.710;2022-09-03T18:35:01;16.20;60.00
30290;DHT22;17105;55.652;37.710;2022-09-03T18:35:57;16.20;60.00
30290;DHT22;17105;55.652;37.710;2022-09-03T18:36:50;16.20;60.00
30290;DHT22;17105;55.652;37.710;2022-09-03T18:37:44;16.20;60.00
30290;DHT22;17105;55.652;37.710;2022-09-03T18:38:38;16.20;60.00
30290;DHT22;17105;55.652;37.710;2022-09-03T18:39:30;16.20;60.00
30290;DHT22;17105;55.652;37.710;2022-09-03T18:40:27;16.20;60.00
30290;DHT22;17105;55.652;37.710;2022-09-03T18:41:43;16.20;60.00
30290;DHT22;17105;55.652;37.710;2022-09-03T18:42:53;16.20;59.80
30290;DHT22;17105;55.652;37.710;2022-09-03T18:43:56;16.20;59.70
30290;DHT22;17105;55.652;37.710;2022-09-03T18:44:55;16.20;59.60
30290;DHT22;17105;55.652;37.710;2022-09-03T18:46:02;16.20;59.70
30290;DHT22;17105;55.652;37.710;2022-09-03T18:47:27;16.20;59.50
30290;DHT22;17105;55.652;37.710;2022-09-03T18:48:43;16.20;59.50
30290;DHT22;17105;55.652;37.710;2022-09-03T18:49:43;16.20;59.50
30290;DHT22;17105;55.652;37.710;2022-09-03T18:50:45;16.20;59.50
30290;DHT22;17105;55.652;37.710;2022-09-03T18:51:48;16.20;59.60
30290;DHT22;17105;55.652;37.710;2022-09-03T18:52:49;16.20;59.60
30290;DHT22;17105;55.652;37.710;2022-09-03T18:53:52;16.20;59.60
30290;DHT22;17105;55.652;37.710;2022-09-03T18:54:58;16.20;59.60
30290;DHT22;17105;55.652;37.710;2022-09-03T18:56:00;16.20;59.60
30290;DHT22;17105;55.652;37.710;2022-09-03T18:56:54;16.10;59.60
30290;DHT22;17105;55.652;37.710;2022-09-03T18:57:58;16.10;59.70
30290;DHT22;17105;55.652;37.710;2022-09-03T18:59:04;16.10;59.70
30290;DHT22;17105;55.652;37.710;2022-09-03T19:00:04;16.10;59.80
30290;DHT22;17105;55.652;37.710;2022-09-03T19:01:09;16.10;59.80
30290;DHT22;17105;55.652;37.710;2022-09-03T19:02:08;16.00;59.80
30290;DHT22;17105;55.652;37.710;2022-09-03T19:03:24;16.00;59.80
30290;DHT22;17105;55.652;37.710;2022-09-03T19:04:27;16.00;59.80
30290;DHT22;17105;55.652;37.710;2022-09-03T19:05:26;16.00;59.90
30290;DHT22;17105;55.652;37.710;2022-09-03T19:06:29;16.00;60.00
30290;DHT22;17105;55.652;37.710;2022-09-03T19:07:32;16.00;60.00
30290;DHT22;17105;55.652;37.710;2022-09-03T19:08:37;15.90;60.10
30290;DHT22;17105;55.652;37.710;2022-09-03T19:09:42;15.90;60.20
30290;DHT22;17105;55.652;37.710;2022-09-03T19:10:42;15.90;60.40
30290;DHT22;17105;55.652;37.710;2022-09-03T19:11:43;15.90;60.40
30290;DHT22;17105;55.652;37.710;2022-09-03T19:13:01;15.90;60.60
30290;DHT22;17105;55.652;37.710;2022-09-03T19:14:03;15.80;60.60
30290;DHT22;17105;55.652;37.710;2022-09-03T19:15:02;15.80;60.80
30290;DHT22;17105;55.652;37.710;2022-09-03T19:15:59;15.80;60.80
30290;DHT22;17105;55.652;37.710;2022-09-03T19:17:00;15.80;60.90
30290;DHT22;17105;55.652;37.710;2022-09-03T19:18:08;15.70;60.90
30290;DHT22;17105;55.652;37.710;2022-09-03T19:19:16;15.70;61.00
30290;DHT22;17105;55.652;37.710;2022-09-03T19:20:23;15.70;61.10
30290;DHT22;17105;55.652;37.710;2022-09-03T19:21:26;15.60;61.10
30290;DHT22;17105;55.652;37.710;2022-09-03T19:22:28;15.60;61.20
30290;DHT22;17105;55.652;37.710;2022-09-03T19:23:24;15.60;61.40
30290;DHT22;17105;55.652;37.710;2022-09-03T19:24:20;15.60;61.50
30290;DHT22;17105;55.652;37.710;2022-09-03T19:25:15;15.60;61.80
30290;DHT22;17105;55.652;37.710;2022-09-03T19:26:14;15.50;61.80
30290;DHT22;17105;55.652;37.710;2022-09-03T19:27:16;15.60;62.00
30290;DHT22;17105;55.652;37.710;2022-09-03T19:28:31;15.50;62.00
30290;DHT22;17105;55.652;37.710;2022-09-03T19:29:39;15.50;62.10
30290;DHT22;17105;55.652;37.710;2022-09-03T19:30:45;15.50;62.20
30290;DHT22;17105;55.652;37.710;2022-09-03T19:31:44;15.50;62.40
30290;DHT22;17105;55.652;37.710;2022-09-03T19:32:49;15.50;62.50
30290;DHT22;17105;55.652;37.710;2022-09-03T19:33:55;15.50;62.60
30290;DHT22;17105;55.652;37.710;2022-09-03T19:35:02;15.50;62.70
30290;DHT22;17105;55.652;37.710;2022-09-03T19:36:06;15.50;63.30
30290;DHT22;17105;55.652;37.710;2022-09-03T19:37:07;15.50;62.90
30290;DHT22;17105;55.652;37.710;2022-09-03T19:38:14;15.50;62.90
30290;DHT22;17105;55.652;37.710;2022-09-03T19:39:19;15.50;63.00
30290;DHT22;17105;55.652;37.710;2022-09-03T19:40:32;15.50;63.00
30290;DHT22;17105;55.652;37.710;2022-09-03T19:41:31;15.50;63.10
30290;DHT22;17105;55.652;37.710;2022-09-03T19:42:28;15.50;63.10
30290;DHT22;17105;55.652;37.710;2022-09-03T19:43:31;15.40;63.10
30290;DHT22;17105;55.652;37.710;2022-09-03T19:44:34;15.40;63.20
30290;DHT22;17105;55.652;37.710;2022-09-03T19:45:39;15.40;63.30
30290;DHT22;17105;55.652;37.710;2022-09-03T19:46:39;15.40;63.40
30290;DHT22;17105;55.652;37.710;2022-09-03T19:47:46;15.40;63.40
30290;DHT22;17105;55.652;37.710;2022-09-03T19:48:51;15.40;63.40
30290;DHT22;17105;55.652;37.710;2022-09-03T19:49:56;15.40;63.40
30290;DHT22;17105;55.652;37.710;2022-09-03T19:51:02;15.40;63.50
30290;DHT22;17105;55.652;37.710;2022-09-03T19:52:02;15.40;63.50
30290;DHT22;17105;55.652;37.710;2022-09-03T19:53:00;15.40;63.60
30290;DHT22;17105;55.652;37.710;2022-09-03T19:53:53;15.40;63.60
30290;DHT22;17105;55.652;37.710;2022-09-03T19:54:52;15.40;63.60
30290;DHT22;17105;55.652;37.710;2022-09-03T19:55:48;15.40;63.60
30290;DHT22;17105;55.652;37.710;2022-09-03T19:56:45;15.40;63.70
30290;DHT22;17105;55.652;37.710;2022-09-03T19:57:39;15.40;64.30
30290;DHT22;17105;55.652;37.710;2022-09-03T19:58:35;15.40;63.70
30290;DHT22;17105;55.652;37.710;2022-09-03T19:59:35;15.40;63.80
30290;DHT22;17105;55.652;37.710;2022-09-03T20:00:31;15.40;63.90
30290;DHT22;17105;55.652;37.710;2022-09-03T20:01:28;15.40;63.90
30290;DHT22;17105;55.652;37.710;2022-09-03T20:02:23;15.40;64.00
30290;DHT22;17105;55.652;37.710;2022-09-03T20:03:15;15.40;64.00
30290;DHT22;17105;55.652;37.710;2022-09-03T20:04:11;15.40;64.00
30290;DHT22;17105;55.652;37.710;2022-09-03T20:05:09;15.50;64.10
30290;DHT22;17105;55.652;37.710;2022-09-03T20:06:05;15.50;64.20
30290;DHT22;17105;55.652;37.710;2022-09-03T20:06:59;15.50;64.20
30290;DHT22;17105;55.652;37.710;2022-09-03T20:07:53;15.40;64.20
30290;DHT22;17105;55.652;37.710;2022-09-03T20:08:48;15.40;64.30
30290;DHT22;17105;55.652;37.710;2022-09-03T20:09:42;15.40;64.30
30290;DHT22;17105;55.652;37.710;2022-09-03T20:10:36;15.40;64.30
30290;DHT22;17105;55.652;37.710;2022-09-03T20:11:16;15.50;64.30
30290;DHT22;17105;55.652;37.710;2022-09-03T20:11:51;15.40;64.30
30290;DHT22;17105;55.652;37.710;2022-09-03T20:12:28;15.40;64.40
30290;DHT22;17105;55.652;37.710;2022-09-03T20:13:08;15.40;64.40
30290;DHT22;17105;55.652;37.710;2022-09-03T20:13:44;15.40;65.00
30290;DHT22;17105;55.652;37.710;2022-09-03T20:14:36;15.40;64.50
30290;DHT22;17105;55.652;37.710;2022-09-03T20:15:12;15.40;64.50
30290;DHT22;17105;55.652;37.710;2022-09-03T20:15:55;15.40;64.50
30290;DHT22;17105;55.652;37.710;2022-09-03T20:16:40;15.40;64.60
30290;DHT22;17105;55.652;37.710;2022-09-03T20:17:22;15.40;64.60
30290;DHT22;17105;55.652;37.710;2022-09-03T20:18:01;15.40;64.60
30290;DHT22;17105;55.652;37.710;2022-09-03T20:18:43;15.50;64.70
30290;DHT22;17105;55.652;37.710;2022-09-03T20:19:28;15.40;64.70
30290;DHT22;17105;55.652;37.710;2022-09-03T20:20:12;15.50;64.80
30290;DHT22;17105;55.652;37.710;2022-09-03T20:21:03;15.50;64.80
30290;DHT22;17105;55.652;37.710;2022-09-03T20:21:48;15.50;64.80
30290;DHT22;17105;55.652;37.710;2022-09-03T20:22:30;15.50;64.80
30290;DHT22;17105;55.652;37.710;2022-09-03T20:23:09;15.50;64.80
30290;DHT22;17105;55.652;37.710;2022-09-03T20:23:53;15.50;64.80
30290;DHT22;17105;55.652;37.710;2022-09-03T20:24:38;15.50;64.80
30290;DHT22;17105;55.652;37.710;2022-09-03T20:25:40;15.50;64.70
30290;DHT22;17105;55.652;37.710;2022-09-03T20:26:43;15.50;64.80
30290;DHT22;17105;55.652;37.710;2022-09-03T20:27:27;15.50;64.60
30290;DHT22;17105;55.652;37.710;2022-09-03T20:28:16;15.50;64.60
30290;DHT22;17105;55.652;37.710;2022-09-03T20:29:15;15.50;64.60
30290;DHT22;17105;55.652;37.710;2022-09-03T20:30:12;15.50;64.60
30290;DHT22;17105;55.652;37.710;2022-09-03T20:30:55;15.50;64.50
30290;DHT22;17105;55.652;37.710;2022-09-03T20:31:42;15.60;64.50
30290;DHT22;17105;55.652;37.710;2022-09-03T20:32:27;15.60;64.50
30290;DHT22;17105;55.652;37.710;2022-09-03T20:33:21;15.60;64.50
30290;DHT22;17105;55.652;37.710;2022-09-03T20:34:08;15.60;64.60
30290;DHT22;17105;55.652;37.710;2022-09-03T20:34:50;15.60;64.60
30290;DHT22;17105;55.652;37.710;2022-09-03T20:35:37;15.60;64.60
30290;DHT22;17105;55.652;37.710;2022-09-03T20:36:20;15.60;65.20
30290;DHT22;17105;55.652;37.710;2022-09-03T20:37:10;15.60;64.60
30290;DHT22;17105;55.652;37.710;2022-09-03T20:37:50;15.60;64.60
30290;DHT22;17105;55.652;37.710;2022-09-03T20:38:47;15.60;64.60
30290;DHT22;17105;55.652;37.710;2022-09-03T20:39:37;15.60;64.70
30290;DHT22;17105;55.652;37.710;2022-09-03T20:40:41;15.60;64.60
30290;DHT22;17105;55.652;37.710;2022-09-03T20:41:22;15.60;64.60
30290;DHT22;17105;55.652;37.710;2022-09-03T20:42:01;15.60;64.60
30290;DHT22;17105;55.652;37.710;2022-09-03T20:42:56;15.60;64.60
30290;DHT22;17105;55.652;37.710;2022-09-03T20:43:56;15.60;64.50
30290;DHT22;17105;55.652;37.710;2022-09-03T20:44:50;15.70;64.50
30290;DHT22;17105;55.652;37.710;2022-09-03T20:45:31;15.70;64.50
30290;DHT22;17105;55.652;37.710;2022-09-03T20:46:35;15.70;64.40
30290;DHT22;17105;55.652;37.710;2022-09-03T20:47:39;15.70;64.40
30290;DHT22;17105;55.652;37.710;2022-09-03T20:48:17;15.70;64.40
30290;DHT22;17105;55.652;37.710;2022-09-03T20:49:02;15.70;64.40
30290;DHT22;17105;55.652;37.710;2022-09-03T20:49:50;15.70;64.40
30290;DHT22;17105;55.652;37.710;2022-09-03T20:50:38;15.70;64.40
30290;DHT22;17105;55.652;37.710;2022-09-03T20:51:19;15.70;64.40
30290;DHT22;17105;55.652;37.710;2022-09-03T20:52:01;15.70;64.40
30290;DHT22;17105;55.652;37.710;2022-09-03T20:52:44;15.70;64.40
30290;DHT22;17105;55.652;37.710;2022-09-03T20:53:37;15.70;64.40
30290;DHT22;17105;55.652;37.710;2022-09-03T20:54:20;15.70;64.50
30290;DHT22;17105;55.652;37.710;2022-09-03T20:55:03;15.70;64.40
30290;DHT22;17105;55.652;37.710;2022-09-03T20:55:42;15.70;64.40
30290;DHT22;17105;55.652;37.710;2022-09-03T20:56:21;15.70;64.30
30290;DHT22;17105;55.652;37.710;2022-09-03T20:57:12;15.70;64.20
30290;DHT22;17105;55.652;37.710;2022-09-03T20:57:55;15.70;64.20
30290;DHT22;17105;55.652;37.710;2022-09-03T20:58:46;15.70;64.20
30290;DHT22;17105;55.652;37.710;2022-09-03T20:59:31;15.70;64.10
30290;DHT22;17105;55.652;37.710;2022-09-03T21:00:14;15.70;64.10
30290;DHT22;17105;55.652;37.710;2022-09-03T21:00:56;15.70;64.10
30290;DHT22;17105;55.652;37.710;2022-09-03T21:01:44;15.70;64.70
30290;DHT22;17105;55.652;37.710;2022-09-03T21:02:33;15.70;64.10
30290;DHT22;17105;55.652;37.710;2022-09-03T21:03:14;15.70;64.10
30290;DHT22;17105;55.652;37.710;2022-09-03T21:03:53;15.70;64.10
30290;DHT22;17105;55.652;37.710;2022-09-03T21:04:43;15.70;64.10
30290;DHT22;17105;55.652;37.710;2022-09-03T21:05:28;15.70;64.10
30290;DHT22;17105;55.652;37.710;2022-09-03T21:06:11;15.70;64.10
30290;DHT22;17105;55.652;37.710;2022-09-03T21:07:00;15.70;64.10
30290;DHT22;17105;55.652;37.710;2022-09-03T21:07:46;15.70;64.10
30290;DHT22;17105;55.652;37.710;2022-09-03T21:08:50;15.70;64.10
30290;DHT22;17105;55.652;37.710;2022-09-03T21:09:31;15.70;64.10
30290;DHT22;17105;55.652;37.710;2022-09-03T21:10:14;15.70;64.20
30290;DHT22;17105;55.652;37.710;2022-09-03T21:11:00;15.70;64.20
30290;DHT22;17105;55.652;37.710;2022-09-03T21:11:43;15.70;64.20
30290;DHT22;17105;55.652;37.710;2022-09-03T21:12:29;15.70;64.10
30290;DHT22;17105;55.652;37.710;2022-09-03T21:13:13;15.70;64.10
30290;DHT22;17105;55.652;37.710;2022-09-03T21:13:53;15.80;64.20
30290;DHT22;17105;55.652;37.710;2022-09-03T21:14:34;15.70;64.20
30290;DHT22;17105;55.652;37.710;2022-09-03T21:15:15;15.70;64.30
30290;DHT22;17105;55.652;37.710;2022-09-03T21:15:57;15.80;64.30
30290;DHT22;17105;55.652;37.710;2022-09-03T21:16:37;15.70;64.30
30290;DHT22;17105;55.652;37.710;2022-09-03T21:17:29;15.70;64.30
30290;DHT22;17105;55.652;37.710;2022-09-03T21:18:16;15.70;64.40
30290;DHT22;17105;55.652;37.710;2022-09-03T21:18:59;15.70;64.40
30290;DHT22;17105;55.652;37.710;2022-09-03T21:19:43;15.80;64.40
30290;DHT22;17105;55.652;37.710;2022-09-03T21:20:31;15.80;64.50
30290;DHT22;17105;55.652;37.710;2022-09-03T21:21:15;15.80;64.50
30290;DHT22;17105;55.652;37.710;2022-09-03T21:21:58;15.80;64.50
30290;DHT22;17105;55.652;37.710;2022-09-03T21:22:47;15.80;64.50
30290;DHT22;17105;55.652;37.710;2022-09-03T21:23:28;15.70;64.50
30290;DHT22;17105;55.652;37.710;2022-09-03T21:24:10;15.70;64.60
30290;DHT22;17105;55.652;37.710;2022-09-03T21:24:50;15.70;64.60
30290;DHT22;17105;55.652;37.710;2022-09-03T21:25:29;15.80;64.70
30290;DHT22;17105;55.652;37.710;2022-09-03T21:26:09;15.70;64.60
30290;DHT22;17105;55.652;37.710;2022-09-03T21:26:52;15.70;64.60
30290;DHT22;17105;55.652;37.710;2022-09-03T21:27:34;15.70;64.60
30290;DHT22;17105;55.652;37.710;2022-09-03T21:28:15;15.70;64.60
30290;DHT22;17105;55.652;37.710;2022-09-03T21:28:57;15.70;64.60
30290;DHT22;17105;55.652;37.710;2022-09-03T21:29:40;15.70;64.70
30290;DHT22;17105;55.652;37.710;2022-09-03T21:30:17;15.70;64.70
30290;DHT22;17105;55.652;37.710;2022-09-03T21:30:58;15.70;64.80
30290;DHT22;17105;55.652;37.710;2022-09-03T21:31:38;15.70;64.80
30290;DHT22;17105;55.652;37.710;2022-09-03T21:32:15;15.70;64.90
30290;DHT22;17105;55.652;37.710;2022-09-03T21:32:53;15.70;64.90
30290;DHT22;17105;55.652;37.710;2022-09-03T21:33:32;15.70;65.00
30290;DHT22;17105;55.652;37.710;2022-09-03T21:34:10;15.70;65.00
30290;DHT22;17105;55.652;37.710;2022-09-03T21:35:00;15.60;65.00
30290;DHT22;17105;55.652;37.710;2022-09-03T21:35:43;15.60;65.00
30290;DHT22;17105;55.652;37.710;2022-09-03T21:36:23;15.70;65.10
30290;DHT22;17105;55.652;37.710;2022-09-03T21:37:03;15.60;65.00
30290;DHT22;17105;55.652;37.710;2022-09-03T21:37:43;15.60;65.10
30290;DHT22;17105;55.652;37.710;2022-09-03T21:38:23;15.60;65.20
30290;DHT22;17105;55.652;37.710;2022-09-03T21:39:04;15.60;65.20
30290;DHT22;17105;55.652;37.710;2022-09-03T21:39:42;15.60;65.30
30290;DHT22;17105;55.652;37.710;2022-09-03T21:40:19;15.60;65.30
30290;DHT22;17105;55.652;37.710;2022-09-03T21:41:04;15.60;65.30
30290;DHT22;17105;55.652;37.710;2022-09-03T21:41:46;15.60;65.40
30290;DHT22;17105;55.652;37.710;2022-09-03T21:42:30;15.60;65.40
30290;DHT22;17105;55.652;37.710;2022-09-03T21:43:11;15.60;65.50
30290;DHT22;17105;55.652;37.710;2022-09-03T21:43:53;15.60;65.50
30290;DHT22;17105;55.652;37.710;2022-09-03T21:44:41;15.60;65.40
30290;DHT22;17105;55.652;37.710;2022-09-03T21:45:21;15.60;65.80
30290;DHT22;17105;55.652;37.710;2022-09-03T21:46:05;15.60;65.50
30290;DHT22;17105;55.652;37.710;2022-09-03T21:46:46;15.60;65.50
30290;DHT22;17105;55.652;37.710;2022-09-03T21:47:26;15.60;65.60
30290;DHT22;17105;55.652;37.710;2022-09-03T21:48:08;15.60;65.60
30290;DHT22;17105;55.652;37.710;2022-09-03T21:48:49;15.60;65.60
30290;DHT22;17105;55.652;37.710;2022-09-03T21:49:26;15.60;65.70
30290;DHT22;17105;55.652;37.710;2022-09-03T21:50:10;15.60;65.80
30290;DHT22;17105;55.652;37.710;2022-09-03T21:50:52;15.60;65.80
30290;DHT22;17105;55.652;37.710;2022-09-03T21:51:32;15.60;65.80
30290;DHT22;17105;55.652;37.710;2022-09-03T21:52:10;15.60;65.90
30290;DHT22;17105;55.652;37.710;2022-09-03T21:52:51;15.60;65.90
30290;DHT22;17105;55.652;37.710;2022-09-03T21:53:28;15.60;65.90
30290;DHT22;17105;55.652;37.710;2022-09-03T21:54:08;15.60;65.90
30290;DHT22;17105;55.652;37.710;2022-09-03T21:54:42;15.60;65.90
30290;DHT22;17105;55.652;37.710;2022-09-03T21:55:21;15.60;65.90
30290;DHT22;17105;55.652;37.710;2022-09-03T21:57:11;15.60;66.00
30290;DHT22;17105;55.652;37.710;2022-09-03T21:58:06;15.60;66.00
30290;DHT22;17105;55.652;37.710;2022-09-03T22:00:13;15.60;66.00
30290;DHT22;17105;55.652;37.710;2022-09-03T22:00:54;15.60;66.00
30290;DHT22;17105;55.652;37.710;2022-09-03T22:01:42;15.60;66.00
30290;DHT22;17105;55.652;37.710;2022-09-03T22:02:21;15.60;65.90
30290;DHT22;17105;55.652;37.710;2022-09-03T22:02:57;15.60;65.90
30290;DHT22;17105;55.652;37.710;2022-09-03T22:03:33;15.60;66.00
30290;DHT22;17105;55.652;37.710;2022-09-03T22:04:07;15.50;66.00
30290;DHT22;17105;55.652;37.710;2022-09-03T22:04:42;15.50;66.60
30290;DHT22;17105;55.652;37.710;2022-09-03T22:05:17;15.50;66.20
30290;DHT22;17105;55.652;37.710;2022-09-03T22:05:58;15.50;66.20
30290;DHT22;17105;55.652;37.710;2022-09-03T22:06:39;15.50;66.30
30290;DHT22;17105;55.652;37.710;2022-09-03T22:07:22;15.50;66.30
30290;DHT22;17105;55.652;37.710;2022-09-03T22:08:14;15.50;66.90
30290;DHT22;17105;55.652;37.710;2022-09-03T22:08:56;15.50;66.40
30290;DHT22;17105;55.652;37.710;2022-09-03T22:09:39;15.50;66.40
30290;DHT22;17105;55.652;37.710;2022-09-03T22:10:20;15.40;66.40
30290;DHT22;17105;55.652;37.710;2022-09-03T22:11:04;15.50;66.50
30290;DHT22;17105;55.652;37.710;2022-09-03T22:11:48;15.40;66.50
30290;DHT22;17105;55.652;37.710;2022-09-03T22:12:27;15.40;66.60
30290;DHT22;17105;55.652;37.710;2022-09-03T22:13:12;15.40;66.60
30290;DHT22;17105;55.652;37.710;2022-09-03T22:13:56;15.40;66.50
30290;DHT22;17105;55.652;37.710;2022-09-03T22:14:38;15.40;66.50
30290;DHT22;17105;55.652;37.710;2022-09-03T22:15:14;15.40;66.50
30290;DHT22;17105;55.652;37.710;2022-09-03T22:15:56;15.50;66.60
30290;DHT22;17105;55.652;37.710;2022-09-03T22:16:34;15.40;66.60
30290;DHT22;17105;55.652;37.710;2022-09-03T22:17:16;15.40;66.60
30290;DHT22;17105;55.652;37.710;2022-09-03T22:17:56;15.40;66.70
30290;DHT22;17105;55.652;37.710;2022-09-03T22:18:34;15.40;66.80
30290;DHT22;17105;55.652;37.710;2022-09-03T22:19:11;15.40;66.80
30290;DHT22;17105;55.652;37.710;2022-09-03T22:19:47;15.40;66.90
30290;DHT22;17105;55.652;37.710;2022-09-03T22:20:22;15.40;66.90